Time;durP1;ratioP1;P1;durP2;ratioP2;P2;SDS_P1;SDS_P2;PMS_P1;PMS_P2;Temp;Humidity;BMP_temperature;BMP_pressure;BME280_temperature;BME280_humidity;BME280_pressure;Samples;Min_cycle;Max_cycle;Signal;HPM_P1;HPM_P2
2020/12/20 00:00:12;;;;;;;22.93;14.87;;;;;;;0.05;90.61;100279.02;1748696;80;20993;-64
2020/12/20 00:02:54;;;;;;;25.20;15.95;;;;;;;0.05;90.53;100275.17;1763507;80;21061;-63
2020/12/20 00:05:23;;;;;;;26.77;16.07;;;;;;;0.05;90.54;100280.30;1753287;78;21541;-65
2020/12/20 00:07:52;;;;;;;26.77;17.17;;;;;;;0.05;90.59;100273.89;1751569;78;21617;-64
2020/12/20 00:10:21;;;;;;;24.75;15.28;;;;;;;0.05;90.58;100280.30;1755925;78;21212;-64
2020/12/20 00:12:50;;;;;;;26.05;16.25;;;;;;;0.07;90.55;100278.61;1756133;79;21168;-64
2020/12/20 00:15:23;;;;;;;26.55;15.72;;;;;;;0.06;90.53;100270.92;1746377;80;21039;-64
2020/12/20 00:17:54;;;;;;;25.77;15.85;;;;;;;0.05;90.52;100273.89;1755522;80;21073;-64
2020/12/20 00:20:24;;;;;;;25.00;16.00;;;;;;;0.05;90.56;100267.47;1756824;79;21069;-64
2020/12/20 00:23:00;;;;;;;24.27;15.70;;;;;;;0.04;90.57;100264.91;1747772;79;21143;-63
2020/12/20 00:25:28;;;;;;;27.42;16.05;;;;;;;0.03;90.52;100264.06;1749278;80;21061;-64
2020/12/20 00:27:57;;;;;;;25.23;16.35;;;;;;;0.01;90.56;100273.45;1757634;80;20997;-64
2020/12/20 00:30:25;;;;;;;25.70;15.83;;;;;;;0.01;90.55;100270.89;1756608;81;21211;-64
2020/12/20 00:32:55;;;;;;;26.02;15.70;;;;;;;0.01;90.59;100275.17;1749634;81;21215;-64
2020/12/20 00:35:24;;;;;;;32.13;17.90;;;;;;;0.01;90.60;100276.02;1751744;80;21240;-64
2020/12/20 00:37:52;;;;;;;27.77;18.00;;;;;;;0.01;90.56;100276.02;1753478;80;21178;-64
2020/12/20 00:40:20;;;;;;;26.20;15.32;;;;;;;0.01;90.57;100281.16;1754393;81;20977;-64
2020/12/20 00:42:48;;;;;;;26.17;15.93;;;;;;;0.02;90.63;100281.58;1743325;80;21176;-64
2020/12/20 00:45:16;;;;;;;22.60;14.53;;;;;;;0.02;90.60;100280.30;1750137;81;21078;-64
2020/12/20 00:47:46;;;;;;;26.40;16.27;;;;;;;0.02;90.55;100285.43;1747443;81;21215;-64
2020/12/20 00:50:13;;;;;;;21.70;15.38;;;;;;;0.01;90.55;100281.16;1730991;80;21027;-64
2020/12/20 00:52:41;;;;;;;24.90;16.70;;;;;;;0.01;90.56;100283.73;1760142;80;26993;-64
2020/12/20 00:55:10;;;;;;;25.23;16.17;;;;;;;0.00;90.61;100289.72;1757304;80;21203;-64
2020/12/20 00:57:39;;;;;;;27.30;17.20;;;;;;;-0.01;90.66;100285.42;1751146;80;21073;-64
2020/12/20 01:00:07;;;;;;;25.68;15.98;;;;;;;0.00;90.65;100287.16;1757332;80;21200;-64
2020/12/20 01:02:36;;;;;;;24.98;15.83;;;;;;;0.02;90.64;100296.98;1753517;80;21045;-64
2020/12/20 01:05:04;;;;;;;25.50;16.67;;;;;;;0.02;90.69;100293.56;1749727;80;21053;-64
2020/12/20 01:07:33;;;;;;;25.10;17.62;;;;;;;0.05;90.69;100303.41;1753942;80;20900;-64
2020/12/20 01:10:01;;;;;;;26.45;15.95;;;;;;;0.05;90.66;100290.58;1765818;80;20982;-64
2020/12/20 01:12:33;;;;;;;23.98;16.02;;;;;;;0.05;90.67;100298.28;1751468;80;21275;-64
2020/12/20 01:15:01;;;;;;;23.00;16.50;;;;;;;0.08;90.65;100300.86;1757152;80;21108;-64
2020/12/20 01:17:29;;;;;;;22.35;15.35;;;;;;;0.07;90.63;100295.73;1759489;80;21065;-65
2020/12/20 01:19:57;;;;;;;22.45;15.18;;;;;;;0.06;90.63;100296.16;1761285;80;21002;-64
2020/12/20 01:22:25;;;;;;;23.20;15.75;;;;;;;0.08;90.62;100295.72;1748616;80;21211;-64
2020/12/20 01:24:53;;;;;;;23.50;15.78;;;;;;;0.06;90.59;100279.47;1761513;80;21190;-64
2020/12/20 01:27:21;;;;;;;24.30;15.55;;;;;;;0.07;90.62;100295.73;1746436;80;21022;-64
2020/12/20 01:29:50;;;;;;;23.90;14.55;;;;;;;0.06;90.63;100283.33;1739462;81;21064;-64
2020/12/20 01:32:18;;;;;;;25.32;15.90;;;;;;;0.05;90.60;100290.58;1750847;80;21445;-64
2020/12/20 01:34:45;;;;;;;22.48;15.20;;;;;;;0.04;90.64;100294.01;1743252;81;21211;-64
2020/12/20 01:37:13;;;;;;;22.70;14.90;;;;;;;0.03;90.63;100291.02;1741737;80;22126;-63
2020/12/20 01:39:41;;;;;;;25.75;15.38;;;;;;;0.05;90.66;100290.58;1750569;81;21055;-64
2020/12/20 01:42:09;;;;;;;27.05;16.30;;;;;;;0.05;90.62;100285.44;1750529;80;21558;-64
2020/12/20 01:44:39;;;;;;;26.02;16.35;;;;;;;0.06;90.65;100288.46;1757847;79;21068;-64
2020/12/20 01:47:07;;;;;;;22.48;14.38;;;;;;;0.05;90.61;100284.16;1758945;79;21246;-64
2020/12/20 01:49:35;;;;;;;26.27;15.20;;;;;;;0.04;90.61;100274.75;1741374;80;21209;-65
2020/12/20 01:52:03;;;;;;;24.45;15.53;;;;;;;0.01;90.64;100278.59;1777797;80;21117;-64
2020/12/20 01:54:31;;;;;;;22.98;14.73;;;;;;;0.01;90.64;100270.03;1746284;80;21047;-64
2020/12/20 01:57:02;;;;;;;22.90;14.58;;;;;;;0.01;90.66;100261.91;1754672;80;21118;-64
2020/12/20 01:59:30;;;;;;;24.45;15.93;;;;;;;0.00;90.61;100264.05;1743869;80;21168;-64
2020/12/20 02:01:59;;;;;;;22.42;15.70;;;;;;;0.01;90.68;100272.61;1753720;80;21256;-64
2020/12/20 02:04:31;;;;;;;24.07;14.83;;;;;;;0.02;90.69;100269.17;1746280;80;21586;-64
2020/12/20 02:07:00;;;;;;;21.90;14.60;;;;;;;-0.01;90.66;100261.88;1770662;80;21057;-64
2020/12/20 02:09:28;;;;;;;24.30;15.63;;;;;;;0.01;90.70;100264.47;1754269;80;22319;-64
2020/12/20 02:12:06;;;;;;;27.98;17.35;;;;;;;0.02;90.75;100274.31;1750930;81;21120;-64
2020/12/20 02:14:33;;;;;;;24.23;14.47;;;;;;;0.03;90.75;100271.77;1760074;80;21426;-64
2020/12/20 02:17:04;;;;;;;26.02;15.72;;;;;;;0.06;90.78;100282.05;1753986;78;20978;-64
2020/12/20 02:19:32;;;;;;;23.90;15.65;;;;;;;0.06;90.71;100274.34;1754183;78;21157;-63
2020/12/20 02:22:03;;;;;;;22.82;15.20;;;;;;;0.08;90.76;100272.61;1751949;80;21063;-64
2020/12/20 02:24:31;;;;;;;24.12;16.07;;;;;;;0.09;90.75;100270.93;1753592;79;21035;-63
2020/12/20 02:26:59;;;;;;;23.40;15.60;;;;;;;0.09;90.73;100274.35;1756227;80;21145;-64
2020/12/20 02:29:26;;;;;;;;;;;;;;;0.12;90.78;100270.94;1768800;78;21167;-64
2020/12/20 02:31:57;;;;;;;25.08;16.30;;;;;;;0.12;90.76;100273.51;1762046;78;20498;-64
2020/12/20 02:34:25;;;;;;;25.52;16.75;;;;;;;0.12;90.74;100279.50;1747774;80;21136;-64
2020/12/20 02:36:54;;;;;;;25.57;15.95;;;;;;;0.13;90.76;100271.36;1750010;78;21061;-64
2020/12/20 02:39:22;;;;;;;23.22;15.93;;;;;;;0.13;90.77;100269.64;1752086;80;21200;-64
2020/12/20 02:41:55;;;;;;;29.57;17.45;;;;;;;0.15;90.81;100271.80;1746815;79;21042;-63
2020/12/20 02:44:24;;;;;;;28.32;16.82;;;;;;;0.15;90.77;100266.66;1752416;80;21199;-64
2020/12/20 02:46:52;;;;;;;28.30;17.35;;;;;;;0.15;90.74;100271.80;1767571;79;21199;-64
2020/12/20 02:49:20;;;;;;;28.35;17.40;;;;;;;0.18;90.78;100261.53;1747632;80;21093;-64
2020/12/20 02:51:48;;;;;;;24.63;16.10;;;;;;;0.18;90.75;100265.82;1756149;80;21467;-64
2020/12/20 02:54:18;;;;;;;27.58;17.05;;;;;;;0.17;90.74;100264.97;1753598;78;21076;-64
2020/12/20 02:56:47;;;;;;;32.30;17.87;;;;;;;0.21;90.82;100264.11;1757790;80;20966;-64
2020/12/20 02:59:15;;;;;;;28.98;18.15;;;;;;;0.23;90.83;100259.42;1758470;78;21176;-64
2020/12/20 03:01:44;;;;;;;27.87;17.60;;;;;;;0.24;90.83;100259.84;1736586;81;21588;-64
2020/12/20 03:04:12;;;;;;;25.62;16.95;;;;;;;0.25;90.83;100264.12;1746306;80;21271;-64
2020/12/20 03:06:41;;;;;;;28.35;17.73;;;;;;;0.28;90.85;100261.56;1753505;81;21010;-64
2020/12/20 03:09:17;;;;;;;31.15;17.65;;;;;;;0.28;90.83;100265.41;1736120;80;21106;-64
2020/12/20 03:11:46;;;;;;;29.00;18.57;;;;;;;0.29;90.84;100263.30;1757100;79;21227;-64
2020/12/20 03:14:14;;;;;;;29.77;17.42;;;;;;;0.32;90.84;100263.30;1736962;81;21149;-64
2020/12/20 03:16:43;;;;;;;31.17;18.50;;;;;;;0.33;90.85;100267.58;1754189;80;21312;-65
2020/12/20 03:19:11;;;;;;;29.70;18.77;;;;;;;0.35;90.84;100272.30;1750819;80;21023;-64
2020/12/20 03:21:39;;;;;;;29.60;18.37;;;;;;;0.36;90.84;100267.58;1765620;78;21042;-64
2020/12/20 03:24:07;;;;;;;27.13;18.17;;;;;;;0.39;90.89;100270.16;1746984;79;21199;-64
2020/12/20 03:26:36;;;;;;;32.70;19.05;;;;;;;0.40;90.86;100268.03;1750239;81;21040;-65
2020/12/20 03:29:07;;;;;;;31.12;19.07;;;;;;;0.41;90.84;100258.18;1768606;80;21192;-64
2020/12/20 03:31:35;;;;;;;30.88;19.87;;;;;;;0.42;90.84;100267.59;1755677;80;21017;-64
2020/12/20 03:34:03;;;;;;;29.23;20.30;;;;;;;0.44;90.83;100268.46;1755194;80;21223;-64
2020/12/20 03:36:31;;;;;;;30.65;18.80;;;;;;;0.43;90.84;100264.19;1756511;80;21149;-64
2020/12/20 03:39:01;;;;;;;29.05;19.50;;;;;;;0.43;90.82;100262.47;1762207;78;21205;-64
2020/12/20 03:41:29;;;;;;;29.72;19.45;;;;;;;0.43;90.81;100262.91;1755323;78;21444;-65
2020/12/20 03:43:57;;;;;;;35.45;20.68;;;;;;;0.46;90.88;100266.77;1764221;80;21038;-64
2020/12/20 03:46:25;;;;;;;32.78;20.35;;;;;;;0.47;90.90;100265.89;1747872;80;21148;-65
2020/12/20 03:48:53;;;;;;;;;;;;;;;0.49;90.88;100264.20;1750523;81;20991;-64
2020/12/20 03:51:22;;;;;;;30.43;19.57;;;;;;;0.51;90.91;100267.64;1747734;80;20283;-64
2020/12/20 03:53:50;;;;;;;32.23;20.15;;;;;;;0.50;90.85;100267.62;1767118;80;21274;-65
2020/12/20 03:56:18;;;;;;;30.55;20.25;;;;;;;0.51;90.91;100264.22;1763820;80;21002;-64
2020/12/20 03:58:46;;;;;;;30.95;20.68;;;;;;;0.50;90.91;100258.19;1756354;80;21175;-65
2020/12/20 04:01:14;;;;;;;35.58;22.00;;;;;;;0.51;90.93;100262.50;1755227;79;21260;-65
2020/12/20 04:03:41;;;;;;;29.00;19.42;;;;;;;0.54;90.97;100265.07;1759215;80;21140;-65
2020/12/20 04:06:10;;;;;;;28.02;20.12;;;;;;;0.55;90.89;100264.20;1757234;80;21132;-64
2020/12/20 04:08:40;;;;;;;33.67;20.92;;;;;;;0.55;90.89;100264.20;1737917;80;20971;-64
2020/12/20 04:11:08;;;;;;;32.45;21.97;;;;;;;0.56;90.88;100270.20;1764400;80;21025;-64
2020/12/20 04:13:36;;;;;;;31.10;21.00;;;;;;;0.55;90.88;100269.34;1768883;80;21176;-64
2020/12/20 04:16:08;;;;;;;36.68;22.60;;;;;;;0.53;90.86;100260.77;1724829;81;21169;-64
2020/12/20 04:18:36;;;;;;;33.48;21.17;;;;;;;0.53;90.88;100262.05;1768677;80;21204;-64
2020/12/20 04:21:05;;;;;;;32.65;22.30;;;;;;;0.53;90.96;100268.47;1769785;80;21077;-64
2020/12/20 04:23:33;;;;;;;33.35;22.60;;;;;;;0.56;90.96;100275.33;1758854;80;21031;-64
2020/12/20 04:26:02;;;;;;;36.17;22.45;;;;;;;0.55;90.98;100271.91;1753253;79;21002;-64
2020/12/20 04:28:30;;;;;;;32.67;22.15;;;;;;;0.56;90.98;100268.51;1752303;81;20956;-64
2020/12/20 04:30:58;;;;;;;31.62;21.70;;;;;;;0.56;90.98;100275.33;1755792;79;21186;-64
2020/12/20 04:33:25;;;;;;;35.95;23.57;;;;;;;0.57;90.94;100277.07;1756470;81;21029;-64
2020/12/20 04:35:54;;;;;;;40.40;24.75;;;;;;;0.57;90.95;100270.22;1762537;80;21179;-64
2020/12/20 04:38:22;;;;;;;38.73;24.77;;;;;;;0.57;90.93;100267.64;1752350;80;20961;-64
2020/12/20 04:40:50;;;;;;;34.40;23.35;;;;;;;0.58;90.98;100280.91;1765076;79;21191;-65
2020/12/20 04:43:22;;;;;;;38.00;23.85;;;;;;;0.58;90.93;100285.20;1762237;80;21375;-64
2020/12/20 04:45:53;;;;;;;34.55;22.00;;;;;;;0.57;90.93;100283.06;1755433;79;21175;-64
2020/12/20 04:48:21;;;;;;;37.13;24.18;;;;;;;0.57;90.95;100280.92;1732907;81;21011;-63
2020/12/20 04:50:49;;;;;;;35.23;23.60;;;;;;;0.58;91.00;100280.91;1750275;81;21006;-62
2020/12/20 04:53:18;;;;;;;37.30;24.35;;;;;;;0.57;90.95;100288.20;1763962;81;20997;-62
2020/12/20 04:55:49;;;;;;;33.38;22.35;;;;;;;0.57;90.97;100283.06;1765477;80;21203;-62
2020/12/20 04:58:17;;;;;;;34.38;24.80;;;;;;;0.56;90.97;100285.22;1759733;80;21006;-63
2020/12/20 05:00:46;;;;;;;36.30;22.20;;;;;;;0.55;90.96;100284.77;1753366;80;21119;-62
2020/12/20 05:03:15;;;;;;;35.95;22.93;;;;;;;0.55;90.98;100287.33;1752855;80;21164;-62
2020/12/20 05:05:43;;;;;;;33.25;22.40;;;;;;;0.54;90.96;100292.05;1754582;78;21125;-63
2020/12/20 05:08:13;;;;;;;35.45;23.85;;;;;;;0.53;90.99;100291.60;1759828;80;21208;-63
2020/12/20 05:10:42;;;;;;;36.05;23.10;;;;;;;0.53;90.99;100291.60;1760744;80;21013;-62
2020/12/20 05:13:12;;;;;;;33.42;23.30;;;;;;;0.53;91.01;100295.45;1746239;81;20973;-62
2020/12/20 05:15:41;;;;;;;36.70;24.90;;;;;;;0.52;91.04;100286.05;1754579;80;21121;-62
2020/12/20 05:18:11;;;;;;;36.30;23.30;;;;;;;0.51;91.02;100285.63;1764361;80;21151;-63
2020/12/20 05:20:48;;;;;;;35.80;23.18;;;;;;;0.51;91.04;100285.63;1757127;80;21202;-62
2020/12/20 05:23:16;;;;;;;;;;;;;;;0.50;91.10;100291.59;1770692;79;21590;-62
2020/12/20 05:25:45;;;;;;;36.98;22.62;;;;;;;0.49;91.11;100293.75;1755150;80;20590;-62
2020/12/20 05:28:18;;;;;;;36.73;23.52;;;;;;;0.48;91.12;100284.33;1742482;80;21208;-62
2020/12/20 05:30:47;;;;;;;34.50;23.18;;;;;;;0.49;91.10;100280.90;1743250;81;21133;-63
2020/12/20 05:33:29;;;;;;;34.15;23.85;;;;;;;0.48;91.04;100290.75;1755199;80;21427;-62
2020/12/20 05:36:00;;;;;;;33.15;22.25;;;;;;;0.47;91.05;100301.02;1757082;81;21566;-62
2020/12/20 05:38:29;;;;;;;34.88;23.30;;;;;;;0.45;91.00;100298.45;1764777;80;21064;-62
2020/12/20 05:40:58;;;;;;;33.42;23.38;;;;;;;0.43;91.03;100296.30;1747349;81;21033;-62
2020/12/20 05:43:27;;;;;;;36.35;23.83;;;;;;;0.43;91.03;100297.59;1732902;81;21189;-62
2020/12/20 05:46:00;;;;;;;30.70;21.68;;;;;;;0.43;91.02;100305.30;1758400;79;21402;-62
2020/12/20 05:48:33;;;;;;;30.10;21.00;;;;;;;0.40;91.00;100302.28;1759776;79;21064;-62
2020/12/20 05:51:05;;;;;;;32.35;22.67;;;;;;;0.40;91.04;100305.29;1762536;79;21073;-62
2020/12/20 05:53:34;;;;;;;30.20;21.07;;;;;;;0.37;91.06;100303.99;1765581;80;21345;-62
2020/12/20 05:56:04;;;;;;;33.92;22.65;;;;;;;0.36;91.10;100305.68;1761812;80;21140;-62
2020/12/20 05:58:34;;;;;;;31.52;22.02;;;;;;;0.36;91.09;100308.68;1756076;80;22097;-63
2020/12/20 06:01:03;;;;;;;32.55;23.10;;;;;;;0.34;91.05;100315.55;1755958;80;21838;-63
2020/12/20 06:03:31;;;;;;;35.25;22.25;;;;;;;0.31;91.04;100306.52;1760924;79;21029;-62
2020/12/20 06:06:03;;;;;;;29.48;20.70;;;;;;;0.29;91.01;100310.81;1760142;80;21012;-62
2020/12/20 06:08:33;;;;;;;30.20;20.88;;;;;;;0.27;91.11;100309.50;1754415;79;21044;-62
2020/12/20 06:11:03;;;;;;;31.65;21.15;;;;;;;0.26;91.13;100310.38;1750773;80;21549;-62
2020/12/20 06:13:33;;;;;;;32.45;22.62;;;;;;;0.25;91.13;100316.77;1745323;81;21077;-62
2020/12/20 06:16:05;;;;;;;32.28;21.97;;;;;;;0.23;91.15;100314.64;1752316;81;21198;-63
2020/12/20 06:18:39;;;;;;;29.42;21.55;;;;;;;0.20;91.15;100313.77;1741428;80;21405;-62
2020/12/20 06:21:12;;;;;;;29.72;20.77;;;;;;;0.18;91.17;100314.61;1744653;81;21136;-62
2020/12/20 06:23:42;;;;;;;30.62;22.35;;;;;;;0.18;91.15;100318.03;1744801;81;21194;-62
2020/12/20 06:26:13;;;;;;;29.10;21.23;;;;;;;0.17;91.18;100321.47;1733758;80;21573;-62
2020/12/20 06:28:43;;;;;;;33.33;21.85;;;;;;;0.15;91.16;100317.17;1718086;81;21605;-62
2020/12/20 06:31:12;;;;;;;30.40;20.68;;;;;;;0.13;91.16;100321.44;1742765;80;21065;-62
2020/12/20 06:33:49;;;;;;;28.55;20.55;;;;;;;0.09;91.12;100328.27;1739005;81;21186;-62
2020/12/20 06:36:17;;;;;;;;;;;;;;;0.07;91.06;100335.10;1751893;81;21267;-63
2020/12/20 06:38:55;;;;;;;31.57;20.35;;;;;;;0.03;91.03;100333.38;1738626;81;20617;-63
2020/12/20 06:41:36;;;;;;;33.78;21.73;;;;;;;0.00;91.14;100325.67;1738460;80;21001;-62
2020/12/20 06:44:18;;;;;;;28.47;20.17;;;;;;;-0.02;91.19;100328.64;1751631;81;21146;-63
2020/12/20 06:46:46;;;;;;;30.57;21.37;;;;;;;-0.04;91.21;100329.05;1747662;81;21672;-62
2020/12/20 06:49:42;;;;;;;28.40;21.30;;;;;;;-0.05;91.21;100329.91;1752304;81;21280;-62
2020/12/20 06:52:28;;;;;;;28.38;20.65;;;;;;;-0.06;91.25;100334.16;1757832;81;21937;-62
2020/12/20 06:55:12;;;;;;;35.23;21.48;;;;;;;-0.05;91.31;100341.47;1759451;78;21604;-62
2020/12/20 06:58:09;;;;;;;32.78;21.15;;;;;;;-0.07;91.27;100334.17;1746261;79;21154;-64
2020/12/20 07:00:51;;;;;;;31.37;21.25;;;;;;;-0.08;91.26;100336.31;1756062;81;21210;-65
2020/12/20 07:03:32;;;;;;;31.97;20.52;;;;;;;-0.08;91.30;100335.03;1760526;81;21565;-65
2020/12/20 07:06:15;;;;;;;34.98;22.73;;;;;;;-0.09;91.28;100338.42;1744685;78;21593;-65
2020/12/20 07:08:57;;;;;;;31.57;21.23;;;;;;;-0.08;91.36;100338.88;1752500;78;21183;-65
2020/12/20 07:11:27;;;;;;;31.27;22.52;;;;;;;-0.06;91.38;100339.73;1748703;80;21670;-65
2020/12/20 07:13:58;;;;;;;29.65;19.87;;;;;;;-0.05;91.38;100351.30;1753744;80;21701;-65
2020/12/20 07:16:40;;;;;;;30.60;21.55;;;;;;;-0.03;91.40;100352.18;1737165;81;21152;-65
2020/12/20 07:19:13;;;;;;;36.15;22.42;;;;;;;0.01;91.42;100349.20;1747323;80;21594;-64
2020/12/20 07:21:46;;;;;;;33.65;21.90;;;;;;;0.05;91.48;100349.63;1760097;80;20990;-65
2020/12/20 07:24:20;;;;;;;36.25;22.77;;;;;;;0.10;91.48;100351.80;1754973;80;21191;-65
2020/12/20 07:26:49;;;;;;;29.98;21.57;;;;;;;0.16;91.47;100355.69;1748194;79;21062;-65
2020/12/20 07:29:17;;;;;;;34.27;22.37;;;;;;;0.23;91.52;100353.17;1752457;80;21205;-65
2020/12/20 07:31:48;;;;;;;34.23;24.43;;;;;;;0.29;91.48;100360.90;1753260;78;21080;-65
2020/12/20 07:34:20;;;;;;;36.08;23.80;;;;;;;0.35;91.50;100358.35;1747730;80;21028;-64
2020/12/20 07:36:51;;;;;;;36.10;23.32;;;;;;;0.43;91.51;100358.81;1745209;80;21189;-65
2020/12/20 07:39:19;;;;;;;35.33;22.67;;;;;;;0.51;91.52;100363.99;1743448;81;21219;-65
2020/12/20 07:41:48;;;;;;;37.15;24.72;;;;;;;0.60;91.47;100364.02;1751763;81;21405;-65
2020/12/20 07:44:17;;;;;;;36.30;24.43;;;;;;;0.68;91.38;100364.48;1752026;81;21089;-65
2020/12/20 07:46:44;;;;;;;56.70;47.00;;;;;;;0.77;91.39;100361.93;1747919;81;21157;-65
2020/12/20 07:49:14;;;;;;;43.80;33.38;;;;;;;0.84;91.33;100361.08;1761863;80;21199;-65
2020/12/20 07:51:42;;;;;;;40.00;28.65;;;;;;;0.93;91.38;100361.12;1755844;80;21247;-65
2020/12/20 07:54:14;;;;;;;52.83;41.53;;;;;;;1.03;91.38;100365.84;1755130;80;21201;-65
2020/12/20 07:56:47;;;;;;;45.05;34.38;;;;;;;1.15;91.34;100363.71;1754143;78;21128;-65
2020/12/20 07:59:19;;;;;;;38.33;27.50;;;;;;;1.26;91.34;100377.44;1752414;80;21263;-65
2020/12/20 08:01:59;;;;;;;;;;;;;;;;;;;;;
2020/12/20 08:04:30;;;;;;;42.75;32.13;;;;;;;1.54;91.27;100379.20;1830985;77;22726;-64
2020/12/20 08:06:59;;;;;;;42.70;31.70;;;;;;;1.59;91.08;100380.47;1809620;77;21032;-63
2020/12/20 08:09:28;;;;;;;36.03;24.43;;;;;;;1.64;91.03;100382.61;1806004;77;22240;-63
2020/12/20 08:11:59;;;;;;;35.13;23.02;;;;;;;1.71;90.96;100380.88;1812905;78;21068;-63
2020/12/20 08:14:36;;;;;;;38.45;27.22;;;;;;;1.85;90.95;100379.19;1815995;77;23372;-64
2020/12/20 08:17:04;;;;;;;33.05;24.92;;;;;;;1.90;91.05;100381.73;1794371;79;21050;-65
2020/12/20 08:19:37;;;;;;;34.05;24.50;;;;;;;2.01;90.91;100383.42;1802488;77;21136;-64
2020/12/20 08:22:20;;;;;;;37.45;28.55;;;;;;;2.10;90.87;100386.84;1788204;79;21052;-66
2020/12/20 08:24:49;;;;;;;35.70;22.37;;;;;;;2.14;90.68;100388.57;1795228;79;20937;-64
2020/12/20 08:27:31;;;;;;;36.75;23.10;;;;;;;2.22;90.76;100390.27;1799142;78;21061;-64
2020/12/20 08:30:04;;;;;;;35.08;25.65;;;;;;;2.27;90.64;100382.53;1800485;77;21056;-65
2020/12/20 08:35:45;;;;;;;35.50;23.62;;;;;;;2.52;90.74;100403.05;1822797;75;23921;-64
2020/12/20 08:38:37;;;;;;;;;;;;;;;;;;;;;
2020/12/20 08:41:25;;;;;;;39.00;26.75;;;;;;;2.68;90.63;100404.71;1869788;74;23311;-64
2020/12/20 08:44:13;;;;;;;36.73;24.60;;;;;;;2.74;90.57;100411.13;1815003;77;21680;-66
2020/12/20 08:46:51;;;;;;;42.83;29.52;;;;;;;2.81;90.32;100407.67;1822362;77;22671;-63
2020/12/20 08:49:26;;;;;;;34.15;23.77;;;;;;;2.75;90.12;100403.84;1823829;77;21592;-63
2020/12/20 08:51:55;;;;;;;44.15;28.55;;;;;;;2.65;90.07;100403.00;1823601;77;21126;-64
2020/12/20 08:54:28;;;;;;;32.65;24.45;;;;;;;2.56;89.92;100407.34;1797814;78;21692;-63
2020/12/20 08:57:10;;;;;;;;;;;;;;;;;;;;;
2020/12/20 08:59:41;;;;;;;44.73;31.45;;;;;;;2.51;90.16;100401.34;1838625;76;22862;-63
2020/12/20 09:02:19;;;;;;;36.95;25.92;;;;;;;2.42;90.12;100397.94;1806730;78;21629;-63
2020/12/20 09:05:07;;;;;;;35.25;24.07;;;;;;;2.35;90.14;100397.55;1796502;78;21298;-63
2020/12/20 09:07:40;;;;;;;41.63;30.72;;;;;;;2.33;90.22;100400.55;1793021;78;21577;-63
2020/12/20 09:10:18;;;;;;;38.50;26.57;;;;;;;2.31;90.24;100397.11;1812541;78;21040;-63
2020/12/20 09:13:04;;;;;;;39.73;26.82;;;;;;;2.34;90.33;100390.66;1795687;78;20945;-63
2020/12/20 09:15:36;;;;;;;36.48;24.05;;;;;;;2.37;90.45;100394.51;1802400;77;21557;-64
2020/12/20 09:18:25;;;;;;;32.40;21.97;;;;;;;2.46;90.48;100398.37;1801325;77;21154;-63
2020/12/20 09:20:56;;;;;;;37.53;28.27;;;;;;;2.53;90.50;100397.05;1796517;77;21004;-63
2020/12/20 09:23:25;;;;;;;64.03;50.28;;;;;;;2.59;90.41;100397.02;1799466;77;21048;-63
2020/12/20 09:26:04;;;;;;;43.98;29.40;;;;;;;2.60;90.44;100397.44;1797509;77;21039;-63
2020/12/20 09:28:34;;;;;;;42.10;29.55;;;;;;;2.64;90.46;100387.55;1810623;77;21225;-63
2020/12/20 09:31:11;;;;;;;35.52;24.32;;;;;;;2.67;90.39;100383.67;1801014;77;21233;-63
2020/12/20 09:33:43;;;;;;;36.15;23.83;;;;;;;2.66;90.28;100388.38;1796266;77;21008;-63
2020/12/20 09:36:20;;;;;;;37.95;26.50;;;;;;;2.63;90.27;100385.81;1794717;78;21134;-63
2020/12/20 09:38:53;;;;;;;44.63;26.23;;;;;;;2.58;90.22;100385.00;1802006;78;21213;-64
2020/12/20 09:41:24;;;;;;;44.93;27.15;;;;;;;2.51;90.17;100389.75;1787129;78;21546;-63
2020/12/20 09:43:54;;;;;;;44.23;27.32;;;;;;;2.48;90.32;100389.77;1805303;77;21167;-63
2020/12/20 09:46:30;;;;;;;45.75;26.95;;;;;;;2.48;90.35;100388.47;1808953;77;21012;-63
2020/12/20 09:48:59;;;;;;;37.38;24.77;;;;;;;2.48;90.41;100389.77;1812999;77;21040;-63
2020/12/20 09:51:27;;;;;;;37.17;25.12;;;;;;;2.54;90.47;100387.16;1792345;78;21178;-63
2020/12/20 09:53:55;;;;;;;40.08;24.47;;;;;;;2.58;90.46;100385.00;1802031;78;21051;-62
2020/12/20 09:56:25;;;;;;;43.23;25.82;;;;;;;2.63;90.47;100380.66;1788805;77;21269;-62
2020/12/20 09:58:54;;;;;;;33.00;22.73;;;;;;;2.68;90.47;100372.48;1806794;77;21394;-64
2020/12/20 10:01:27;;;;;;;40.75;24.82;;;;;;;2.74;90.43;100373.73;1794384;78;20980;-63
2020/12/20 10:03:55;;;;;;;34.95;24.20;;;;;;;2.77;90.44;100367.27;1803241;78;21004;-63
2020/12/20 10:06:25;;;;;;;34.63;23.02;;;;;;;2.84;90.50;100370.69;1800153;77;21083;-62
2020/12/20 10:08:54;;;;;;;41.23;23.50;;;;;;;2.93;90.49;100368.49;1798122;77;21184;-63
2020/12/20 10:11:24;;;;;;;33.88;23.40;;;;;;;2.96;90.34;100360.73;1794696;78;21009;-63
2020/12/20 10:13:54;;;;;;;31.60;21.85;;;;;;;2.98;90.24;100363.73;1797354;78;21541;-63
2020/12/20 10:16:24;;;;;;;32.58;22.73;;;;;;;3.02;90.33;100365.84;1804149;78;20975;-63
2020/12/20 10:18:52;;;;;;;32.98;21.68;;;;;;;3.10;90.39;100371.81;1799510;78;21016;-63
2020/12/20 10:21:20;;;;;;;34.78;22.05;;;;;;;3.15;90.46;100364.91;1810621;78;21197;-63
2020/12/20 10:23:49;;;;;;;34.50;22.65;;;;;;;3.25;90.46;100354.08;1796504;78;21127;-63
2020/12/20 10:26:17;;;;;;;36.93;22.22;;;;;;;3.30;90.28;100359.63;1796749;78;21134;-63
2020/12/20 10:28:45;;;;;;;32.98;22.25;;;;;;;3.34;90.40;100363.91;1800687;78;21091;-63
2020/12/20 10:31:20;;;;;;;36.48;22.62;;;;;;;3.43;90.41;100359.55;1797166;78;21158;-63
2020/12/20 10:33:49;;;;;;;31.80;22.65;;;;;;;3.49;90.28;100357.77;1796993;77;21191;-64
2020/12/20 10:36:21;;;;;;;35.65;22.95;;;;;;;3.54;90.17;100360.32;1807370;77;21226;-63
2020/12/20 10:38:48;;;;;;;38.08;23.45;;;;;;;3.53;90.06;100368.95;1792998;77;21045;-63
2020/12/20 10:41:17;;;;;;;38.23;23.65;;;;;;;3.51;89.91;100357.77;1803283;78;21123;-63
2020/12/20 10:43:45;;;;;;;41.88;24.63;;;;;;;3.47;89.90;100358.64;1802803;78;21055;-63
2020/12/20 10:46:14;;;;;;;38.10;22.10;;;;;;;3.46;89.92;100359.52;1795391;78;21199;-64
2020/12/20 10:48:43;;;;;;;43.87;26.40;;;;;;;3.48;89.99;100357.80;1801397;77;21028;-63
2020/12/20 10:51:12;;;;;;;41.23;25.57;;;;;;;3.51;90.04;100358.62;1804717;78;21178;-63
2020/12/20 10:53:41;;;;;;;39.05;24.65;;;;;;;3.54;89.99;100359.03;1791439;78;21055;-63
2020/12/20 10:56:10;;;;;;;39.27;25.37;;;;;;;3.55;89.85;100356.86;1797232;77;21186;-63
2020/12/20 10:58:43;;;;;;;37.55;24.00;;;;;;;3.55;89.82;100350.41;1804661;78;21194;-64
2020/12/20 11:01:20;;;;;;;33.40;20.92;;;;;;;3.57;89.95;100345.65;1737723;81;21099;-63
2020/12/20 11:03:50;;;;;;;33.40;21.97;;;;;;;3.61;89.93;100346.47;1759561;80;21074;-63
2020/12/20 11:06:23;;;;;;;37.58;23.12;;;;;;;3.64;89.89;100343.89;1737427;80;21530;-63
2020/12/20 11:08:52;;;;;;;41.35;23.95;;;;;;;3.68;89.89;100340.39;1742523;81;21033;-63
2020/12/20 11:11:25;;;;;;;42.58;27.62;;;;;;;3.70;89.87;100332.20;1736621;79;21198;-64
2020/12/20 11:13:52;;;;;;;41.55;26.42;;;;;;;3.72;89.88;100342.06;1737669;81;21010;-65
2020/12/20 11:16:19;;;;;;;36.73;25.97;;;;;;;3.74;89.84;100335.16;1737296;80;21507;-63
2020/12/20 11:18:48;;;;;;;35.45;21.62;;;;;;;3.76;89.72;100340.33;1751176;80;21069;-64
2020/12/20 11:21:18;;;;;;;28.60;19.75;;;;;;;3.75;89.69;100336.89;1741603;79;20990;-64
2020/12/20 11:23:49;;;;;;;34.27;20.77;;;;;;;3.76;89.67;100337.30;1746581;81;21862;-64
2020/12/20 11:26:23;;;;;;;38.35;22.00;;;;;;;3.79;89.69;100330.81;1738735;81;20938;-64
2020/12/20 11:28:56;;;;;;;31.20;20.52;;;;;;;3.82;89.58;100331.22;1739479;81;21157;-64
2020/12/20 11:31:25;;;;;;;28.55;19.65;;;;;;;3.80;89.52;100336.39;1739801;81;21487;-64
2020/12/20 11:33:55;;;;;;;29.82;20.95;;;;;;;3.79;89.40;100330.81;1738331;81;21166;-63
2020/12/20 11:36:24;;;;;;;30.57;20.25;;;;;;;3.83;89.54;100328.20;1740519;81;21529;-63
2020/12/20 11:38:53;;;;;;;34.55;21.02;;;;;;;3.85;89.50;100327.76;1745046;81;21223;-63
2020/12/20 11:41:25;;;;;;;37.67;21.50;;;;;;;3.86;89.37;100330.75;1742205;81;21006;-63